Time;durP1;ratioP1;P1;durP2;ratioP2;P2;SDS_P1;SDS_P2;PMS_P1;PMS_P2;Temp;Humidity;BMP_temperature;BMP_pressure;BME280_temperature;BME280_humidity;BME280_pressure;Samples;Min_cycle;Max_cycle;Signal;HPM_P1;HPM_P2
2021/05/19 00:01:47;;;;;;;1.73;1.43;;;;;;;12.52;69.27;95451.97;4975840;28;20218;-88
2021/05/19 00:04:16;;;;;;;1.87;1.30;;;;;;;12.52;69.04;95449.38;4975865;28;20208;-87
2021/05/19 00:06:43;;;;;;;2.20;1.50;;;;;;;12.39;70.78;95449.31;4976098;28;20205;-87
2021/05/19 00:09:21;;;;;;;1.40;1.30;;;;;;;12.35;70.50;95448.09;4975242;28;20278;-88
2021/05/19 00:11:50;;;;;;;1.40;1.20;;;;;;;12.39;70.52;95437.22;4975426;28;20262;-87
2021/05/19 00:14:24;;;;;;;1.23;1.13;;;;;;;12.38;69.63;95437.41;4976278;28;20259;-87
2021/05/19 00:16:52;;;;;;;1.17;1.07;;;;;;;12.38;69.50;95445.94;4976051;28;20199;-88
2021/05/19 00:19:18;;;;;;;3.67;0.90;;;;;;;12.38;68.69;95447.72;4976329;28;20821;-88
2021/05/19 00:21:51;;;;;;;1.10;1.00;;;;;;;12.37;68.87;95439.19;4975459;28;20230;-87
2021/05/19 00:24:23;;;;;;;2.40;1.10;;;;;;;12.39;68.28;95446.75;4976750;28;20210;-86
2021/05/19 00:26:55;;;;;;;1.07;0.93;;;;;;;12.40;68.14;95443.97;4976142;28;20204;-87
2021/05/19 00:29:23;;;;;;;1.37;1.20;;;;;;;12.41;67.87;95448.16;4976261;28;20239;-88
2021/05/19 00:31:49;;;;;;;1.47;1.30;;;;;;;12.45;67.84;95451.94;4975064;28;20233;-87
2021/05/19 00:34:18;;;;;;;2.47;1.20;;;;;;;12.43;68.23;95453.91;4976025;28;20196;-87
2021/05/19 00:36:44;;;;;;;1.53;1.10;;;;;;;12.47;67.92;95445.81;4975861;28;20211;-88
2021/05/19 00:39:14;;;;;;;1.13;1.07;;;;;;;12.40;67.75;95445.75;4975552;28;20200;-88
2021/05/19 00:41:44;;;;;;;1.17;1.00;;;;;;;12.37;67.56;95443.56;4975120;28;20236;-87
2021/05/19 00:44:24;;;;;;;0.90;0.90;;;;;;;12.37;67.70;95452.09;4973853;28;20228;-87
2021/05/19 00:46:52;;;;;;;1.27;0.97;;;;;;;12.39;67.91;95450.13;4975400;28;20730;-86
2021/05/19 00:49:21;;;;;;;1.10;1.00;;;;;;;12.42;67.46;95446.38;4975428;28;20248;-87
2021/05/19 00:51:47;;;;;;;1.77;0.93;;;;;;;12.36;67.45;95452.28;4975449;28;20251;-87
2021/05/19 00:54:17;;;;;;;1.50;1.10;;;;;;;12.35;66.90;95448.91;4975411;28;20215;-87
2021/05/19 00:56:53;;;;;;;1.77;1.07;;;;;;;12.28;67.74;95455.03;4975510;28;20219;-87
2021/05/19 00:59:19;;;;;;;1.20;1.00;;;;;;;12.18;67.85;95462.31;4975204;28;20200;-88
2021/05/19 01:02:01;;;;;;;1.10;1.00;;;;;;;12.17;67.61;95461.50;4975272;28;20235;-87
2021/05/19 01:04:30;;;;;;;1.20;1.10;;;;;;;12.06;68.90;95460.25;4977568;28;20270;-88
2021/05/19 01:06:59;;;;;;;2.00;1.07;;;;;;;12.13;67.99;95468.03;4979773;28;20208;-87
2021/05/19 01:09:36;;;;;;;1.47;1.03;;;;;;;12.20;67.39;95462.91;4978535;28;20200;-85
2021/05/19 01:12:12;;;;;;;1.27;1.07;;;;;;;12.22;67.44;95463.53;4978913;28;20203;-88
2021/05/19 01:14:40;;;;;;;1.07;1.00;;;;;;;12.25;67.34;95461.38;4979351;28;20196;-87
2021/05/19 01:17:15;;;;;;;0.83;0.83;;;;;;;12.24;66.87;95458.97;4978816;28;20268;-88
2021/05/19 01:19:53;;;;;;;1.20;0.90;;;;;;;12.27;66.58;95474.09;4978051;28;20330;-85
2021/05/19 01:22:30;;;;;;;1.93;1.00;;;;;;;12.21;67.29;95465.31;4978082;28;20204;-87
2021/05/19 01:25:00;;;;;;;1.10;1.00;;;;;;;12.24;67.26;95470.09;4958758;29;20214;-87
2021/05/19 01:27:30;;;;;;;0.70;0.70;;;;;;;12.22;67.25;95463.53;4976979;28;20204;-88
2021/05/19 01:29:59;;;;;;;0.80;0.80;;;;;;;12.20;66.69;95466.28;4977791;28;20216;-86
2021/05/19 01:32:27;;;;;;;1.53;0.90;;;;;;;12.20;66.76;95460.34;4977434;28;20200;-86
2021/05/19 01:34:57;;;;;;;1.17;0.80;;;;;;;12.18;67.06;95465.69;4978713;28;20211;-88
2021/05/19 01:37:37;;;;;;;1.00;0.90;;;;;;;12.16;67.21;95462.50;4977937;28;20208;-87
2021/05/19 01:40:06;;;;;;;1.83;0.80;;;;;;;12.15;66.76;95465.25;4978341;28;20232;-87
2021/05/19 01:42:34;;;;;;;1.00;0.90;;;;;;;12.19;66.46;95456.16;4969565;28;20581;-88
2021/05/19 01:45:00;;;;;;;1.27;0.80;;;;;;;12.22;66.74;95466.09;4977962;28;20287;-87
2021/05/19 01:47:40;;;;;;;1.30;1.20;;;;;;;12.19;66.65;95459.53;4978017;28;20231;-85
2021/05/19 01:50:08;;;;;;;0.80;0.80;;;;;;;12.12;66.56;95466.47;4978555;28;20302;-87
2021/05/19 01:52:37;;;;;;;1.10;0.90;;;;;;;11.96;66.87;95464.94;4977029;28;20219;-88
2021/05/19 01:55:18;;;;;;;1.10;1.00;;;;;;;11.98;66.86;95464.75;4978019;28;20207;-86
2021/05/19 01:57:54;;;;;;;0.80;0.80;;;;;;;11.96;67.33;95471.88;4978335;28;20701;-87
2021/05/19 02:00:29;;;;;;;1.37;0.90;;;;;;;11.87;67.64;95475.59;4978661;28;20307;-86
2021/05/19 02:03:04;;;;;;;1.03;0.90;;;;;;;11.92;67.67;95471.47;4978085;28;20223;-87
2021/05/19 02:05:35;;;;;;;1.30;1.20;;;;;;;11.90;67.75;95475.22;4977885;28;20199;-88
2021/05/19 02:08:08;;;;;;;3.23;1.03;;;;;;;11.89;67.62;95482.16;4977794;28;20231;-87
2021/05/19 02:10:37;;;;;;;2.33;1.10;;;;;;;11.98;67.56;95477.66;4978296;28;20639;-86
2021/05/19 02:15:51;;;;;;;0.80;0.80;;;;;;;12.00;67.40;95476.47;4976627;28;20220;-87
2021/05/19 02:18:21;;;;;;;1.10;1.00;;;;;;;11.94;68.01;95476.44;4977988;28;20220;-88
2021/05/19 02:20:50;;;;;;;2.33;1.20;;;;;;;11.94;68.05;95477.22;4977289;28;20247;-88
2021/05/19 02:23:21;;;;;;;1.00;0.90;;;;;;;11.98;67.93;95475.88;4977027;28;20204;-87
2021/05/19 02:25:54;;;;;;;1.00;1.00;;;;;;;12.04;67.40;95474.31;4976920;28;20200;-87
2021/05/19 02:28:20;;;;;;;1.80;1.50;;;;;;;12.02;67.57;95474.50;4976993;28;20271;-87
2021/05/19 02:30:50;;;;;;;1.13;1.03;;;;;;;11.98;67.87;95467.31;4977437;28;20509;-86
2021/05/19 02:33:26;;;;;;;2.43;0.97;;;;;;;12.03;68.08;95472.72;4977237;28;20211;-86
2021/05/19 02:35:55;;;;;;;1.27;1.10;;;;;;;12.04;68.00;95476.91;4977655;28;20246;-87
2021/05/19 02:38:28;;;;;;;1.67;1.10;;;;;;;12.02;68.21;95484.03;4977190;28;20200;-88
2021/05/19 02:40:59;;;;;;;0.87;0.83;;;;;;;11.96;67.98;95475.25;4976816;28;20311;-86
2021/05/19 02:43:33;;;;;;;1.40;1.03;;;;;;;11.87;68.22;95481.56;4976273;28;20312;-86
2021/05/19 02:45:59;;;;;;;1.53;1.20;;;;;;;11.88;68.40;95477.19;4977019;28;20242;-87
2021/05/19 02:48:27;;;;;;;2.70;0.90;;;;;;;11.94;67.98;95482.38;4976240;28;20247;-87
2021/05/19 02:50:57;;;;;;;1.20;1.10;;;;;;;11.95;67.92;95481.41;4976234;28;20591;-86
2021/05/19 02:53:30;;;;;;;1.13;1.07;;;;;;;11.91;68.51;95482.78;4975773;28;20208;-87
2021/05/19 02:56:06;;;;;;;1.73;1.10;;;;;;;11.81;69.11;95477.13;4976763;28;20254;-87
2021/05/19 02:58:56;;;;;;;1.40;1.27;;;;;;;11.73;69.47;95482.41;4976091;28;20206;-86
2021/05/19 03:04:26;;;;;;;6.23;1.07;;;;;;;11.90;68.66;95477.81;4976039;28;20200;-87
2021/05/19 03:06:54;;;;;;;1.50;1.00;;;;;;;11.96;68.40;95488.16;4975768;28;20204;-87
2021/05/19 03:09:22;;;;;;;1.67;1.03;;;;;;;12.03;67.94;95483.84;4975858;28;20209;-87
2021/05/19 03:11:56;;;;;;;1.97;1.07;;;;;;;12.07;68.23;95487.66;4975297;28;20707;-87
2021/05/19 03:14:31;;;;;;;1.70;1.03;;;;;;;12.04;67.88;95482.88;4976142;28;20682;-87
2021/05/19 03:17:05;;;;;;;2.33;1.20;;;;;;;12.06;67.45;95486.06;4975786;28;20262;-86
2021/05/19 03:19:34;;;;;;;3.13;1.20;;;;;;;11.98;68.28;95495.72;4975206;28;20822;-86
2021/05/19 03:22:05;;;;;;;1.20;1.10;;;;;;;11.98;68.24;95491.34;4975617;28;20200;-87
2021/05/19 03:24:41;;;;;;;1.30;1.17;;;;;;;12.05;67.85;95491.41;4975782;28;20200;-87
2021/05/19 03:27:17;;;;;;;1.90;1.10;;;;;;;12.02;68.17;95500.31;4975813;28;20188;-88
2021/05/19 03:29:43;;;;;;;1.63;1.20;;;;;;;11.97;68.13;95488.94;4975775;28;20207;-86
2021/05/19 03:32:12;;;;;;;1.53;1.30;;;;;;;12.00;68.38;95493.75;4975778;28;20623;-87
2021/05/19 03:34:39;;;;;;;1.67;1.20;;;;;;;11.98;68.28;95501.66;4975606;28;20204;-85
2021/05/19 03:37:05;;;;;;;0.90;0.90;;;;;;;11.97;68.62;95502.66;4975691;28;20291;-88
2021/05/19 03:39:35;;;;;;;1.20;1.10;;;;;;;11.95;68.60;95498.66;4975480;28;20886;-88
2021/05/19 03:42:01;;;;;;;2.10;1.13;;;;;;;12.00;68.17;95507.44;4975585;28;20243;-88
2021/05/19 03:44:27;;;;;;;3.40;1.23;;;;;;;12.01;68.25;95498.72;4975270;28;20232;-88
2021/05/19 03:46:57;;;;;;;1.40;1.30;;;;;;;11.90;68.44;95512.16;4974499;28;20204;-87
2021/05/19 03:52:16;;;;;;;1.47;1.30;;;;;;;11.93;68.71;95510.97;4973154;28;20242;-87
2021/05/19 03:57:27;;;;;;;1.53;1.43;;;;;;;11.86;69.92;95510.13;4973143;28;20211;-86
2021/05/19 03:59:53;;;;;;;3.23;2.00;;;;;;;11.74;69.46;95513.16;4975013;28;20609;-87
2021/05/19 04:02:23;;;;;;;2.67;1.80;;;;;;;11.72;70.33;95516.91;4975914;28;20207;-87
2021/05/19 04:05:05;;;;;;;2.80;1.73;;;;;;;11.67;69.98;95516.66;4975274;28;20695;-87
2021/05/19 04:07:36;;;;;;;1.90;1.70;;;;;;;11.70;70.00;95527.41;4975285;28;20687;-86
2021/05/19 04:10:09;;;;;;;1.77;1.67;;;;;;;11.79;70.33;95528.09;4974759;28;20232;-86
2021/05/19 04:12:36;;;;;;;2.03;1.83;;;;;;;11.86;70.59;95531.56;4974283;28;20231;-86
2021/05/19 04:15:07;;;;;;;2.13;1.77;;;;;;;11.83;70.69;95534.50;4974946;28;20219;-85
2021/05/19 04:17:40;;;;;;;1.90;1.80;;;;;;;11.83;70.52;95534.50;4975163;28;20262;-86
2021/05/19 04:20:09;;;;;;;14.33;12.60;;;;;;;11.87;70.99;95537.50;4974721;28;20313;-87
2021/05/19 04:22:49;;;;;;;6.10;5.43;;;;;;;11.82;72.04;95537.25;4974406;28;20262;-86
2021/05/19 04:25:21;;;;;;;5.07;3.27;;;;;;;11.79;72.54;95541.00;4954622;29;20668;-86
2021/05/19 04:27:52;;;;;;;2.40;2.20;;;;;;;11.76;74.16;95541.38;4954827;29;20201;-87
2021/05/19 04:30:21;;;;;;;3.07;2.20;;;;;;;11.75;74.69;95547.47;4973890;28;20268;-88
2021/05/19 04:32:48;;;;;;;1.83;1.73;;;;;;;11.70;76.06;95545.47;4973911;28;20188;-88
2021/05/19 04:35:23;;;;;;;5.47;2.10;;;;;;;11.67;76.26;95551.00;4973882;28;20208;-88
2021/05/19 04:37:59;;;;;;;2.10;1.90;;;;;;;11.61;77.81;95558.66;4975154;28;20215;-86
2021/05/19 04:40:28;;;;;;;2.67;2.10;;;;;;;11.71;76.00;95554.00;4976791;28;20227;-85
2021/05/19 04:43:09;;;;;;;2.50;2.00;;;;;;;11.68;76.97;95570.66;4967157;28;20255;-87
2021/05/19 04:45:39;;;;;;;2.10;1.90;;;;;;;11.68;76.97;95562.91;4968805;28;20208;-86
2021/05/19 04:48:06;;;;;;;32.13;27.77;;;;;;;11.64;78.64;95559.09;4962225;28;20212;-85
2021/05/19 04:50:36;;;;;;;7.17;6.13;;;;;;;11.68;77.58;95567.25;4973149;28;20228;-86
2021/05/19 04:53:02;;;;;;;5.30;2.20;;;;;;;11.69;77.80;95558.53;4967891;28;20213;-88
2021/05/19 04:55:30;;;;;;;2.20;2.00;;;;;;;11.76;77.23;95562.81;4975846;28;20204;-87
2021/05/19 04:57:56;;;;;;;2.10;1.90;;;;;;;11.80;76.67;95570.97;4964948;28;20196;-86
2021/05/19 05:00:22;;;;;;;2.13;1.93;;;;;;;11.75;77.41;95573.28;4976424;28;20251;-87
2021/05/19 05:02:48;;;;;;;1.87;1.77;;;;;;;11.76;77.18;95574.91;4963572;28;20196;-87
2021/05/19 05:05:15;;;;;;;1.60;1.50;;;;;;;11.74;75.98;95569.88;4977008;28;20220;-85
2021/05/19 05:07:41;;;;;;;2.00;1.90;;;;;;;11.69;76.67;95572.25;4977079;28;20204;-84
2021/05/19 05:10:09;;;;;;;1.70;1.60;;;;;;;11.72;75.91;95579.63;4975103;28;20223;-84
2021/05/19 05:12:36;;;;;;;1.80;1.70;;;;;;;11.69;76.86;95579.19;4976596;28;20196;-86
2021/05/19 05:15:03;;;;;;;2.83;2.07;;;;;;;11.67;76.70;95581.13;4975218;28;20204;-86
2021/05/19 05:17:32;;;;;;;2.37;2.00;;;;;;;11.66;76.99;95576.97;4960807;28;20250;-88
2021/05/19 05:20:02;;;;;;;3.50;1.67;;;;;;;11.65;77.06;95580.53;4969062;28;20879;-86
2021/05/19 05:22:34;;;;;;;2.10;2.00;;;;;;;11.61;78.97;95584.44;4972830;28;20196;-86
2021/05/19 05:25:16;;;;;;;1.97;1.87;;;;;;;11.62;78.47;95580.88;4974231;28;20583;-87
2021/05/19 05:34:27;;;;;;;3.07;2.30;;;;;;;11.67;80.03;95586.28;4840759;29;20303;-87
2021/05/19 05:37:23;;;;;;;2.43;2.00;;;;;;;11.65;79.72;95576.16;4951928;28;20196;-86
2021/05/19 05:43:52;;;;;;;2.50;2.20;;;;;;;11.71;79.11;95583.19;4831172;29;20235;-88
2021/05/19 05:47:08;;;;;;;2.27;2.00;;;;;;;11.70;79.38;95581.59;4899309;28;20847;-86
2021/05/19 05:50:03;;;;;;;2.30;2.10;;;;;;;11.69;79.44;95581.75;4896931;29;20320;-85
2021/05/19 05:56:13;;;;;;;4.17;2.60;;;;;;;11.85;78.86;95591.88;4881372;29;20205;-86
2021/05/19 06:02:20;;;;;;;3.30;2.90;;;;;;;11.82;78.54;95597.38;4860125;29;20280;-87
2021/05/19 06:08:15;;;;;;;4.20;2.77;;;;;;;11.82;79.13;95605.13;4792631;29;20247;-86
2021/05/19 06:11:09;;;;;;;2.97;2.77;;;;;;;11.82;79.41;95601.75;4969355;28;20244;-86
2021/05/19 06:13:50;;;;;;;3.73;2.80;;;;;;;11.79;78.91;95602.91;4876811;29;20214;-87
2021/05/19 06:16:34;;;;;;;3.00;2.70;;;;;;;11.83;79.09;95600.75;4973799;28;20210;-86
2021/05/19 06:19:02;;;;;;;2.97;2.77;;;;;;;11.87;79.50;95602.00;4973860;28;20311;-86
2021/05/19 06:24:40;;;;;;;3.37;2.87;;;;;;;11.93;78.03;95609.78;4954014;29;20289;-88
2021/05/19 06:30:50;;;;;;;3.97;2.97;;;;;;;11.88;77.19;95606.19;4963723;23;20703;-86
2021/05/19 06:33:59;;;;;;;3.10;2.90;;;;;;;11.89;77.05;95606.00;4993120;28;20269;-87
2021/05/19 06:39:57;;;;;;;4.03;3.30;;;;;;;11.75;78.52;95606.81;4981742;28;20246;-85
2021/05/19 06:46:16;;;;;;;;;;;;;;;;;;;;;
2021/05/19 06:54:53;;;;;;;3.97;3.67;;;;;;;11.95;79.09;95607.81;4951902;29;20295;-85
2021/05/19 06:57:21;;;;;;;4.30;3.90;;;;;;;11.95;78.86;95601.88;4968964;28;20961;-87
2021/05/19 06:59:51;;;;;;;4.13;3.80;;;;;;;12.07;78.93;95611.53;4968736;28;20295;-86
2021/05/19 07:02:20;;;;;;;4.07;3.50;;;;;;;12.09;78.64;95611.34;4972283;28;20283;-85
2021/05/19 07:08:25;;;;;;;;;;;;;;;;;;;;;
2021/05/19 07:13:50;;;;;;;4.70;3.80;;;;;;;12.35;77.70;95608.97;4857753;29;20201;-86
2021/05/19 07:16:23;;;;;;;3.90;3.60;;;;;;;12.48;77.39;95610.09;4914149;29;20210;-84
2021/05/19 07:21:51;;;;;;;4.03;3.73;;;;;;;12.50;76.38;95608.91;4913163;29;20234;-88
2021/05/19 07:24:20;;;;;;;4.23;3.83;;;;;;;12.36;76.76;95605.41;4914215;29;20206;-87
2021/05/19 07:27:22;;;;;;;3.67;3.37;;;;;;;12.34;76.13;95612.53;4908174;29;20210;-86
2021/05/19 07:30:50;;;;;;;3.83;3.53;;;;;;;12.44;75.86;95619.97;4957067;28;20207;-86
2021/05/19 07:33:34;;;;;;;;;;;;;;;;;;;;;
2021/05/19 07:36:06;;;;;;;4.60;3.73;;;;;;;12.33;75.89;95623.06;4967454;28;20772;-84
2021/05/19 07:38:32;;;;;;;3.73;3.40;;;;;;;12.43;75.32;95616.59;4972743;28;20219;-83
2021/05/19 07:40:59;;;;;;;4.07;3.77;;;;;;;12.41;77.49;95615.97;4986038;28;20220;-87
2021/05/19 07:43:36;;;;;;;4.20;3.90;;;;;;;12.38;77.49;95612.97;4991511;28;20743;-86
2021/05/19 07:46:02;;;;;;;4.63;4.23;;;;;;;12.49;76.38;95616.84;4973745;28;20214;-85
2021/05/19 07:51:48;;;;;;;4.33;3.93;;;;;;;12.67;76.20;95615.38;5008206;23;20333;-87
2021/05/19 07:54:24;;;;;;;4.80;4.40;;;;;;;12.72;75.14;95617.38;4991010;28;20199;-87
2021/05/19 07:56:55;;;;;;;4.43;4.13;;;;;;;12.80;74.83;95614.66;4991293;28;20663;-87
2021/05/19 07:59:38;;;;;;;4.30;4.00;;;;;;;12.99;72.99;95615.78;4980546;28;20287;-87
2021/05/19 08:02:32;;;;;;;4.20;3.90;;;;;;;13.28;71.17;95610.38;4971134;28;20223;-88
2021/05/19 08:04:58;;;;;;;4.90;4.40;;;;;;;13.36;69.78;95606.84;4971047;28;20247;-87
2021/05/19 08:07:27;;;;;;;4.80;4.40;;;;;;;13.18;69.07;95604.78;4953492;29;20201;-87
2021/05/19 08:09:56;;;;;;;4.30;3.90;;;;;;;13.11;70.77;95609.88;4968043;28;20211;-85
2021/05/19 08:12:51;;;;;;;4.73;4.33;;;;;;;12.97;71.34;95605.63;4973975;28;20671;-87
2021/05/19 08:15:25;;;;;;;4.50;4.10;;;;;;;12.80;71.97;95609.50;4976794;28;20204;-87
2021/05/19 08:17:53;;;;;;;4.90;4.50;;;;;;;12.71;72.92;95616.59;4976750;28;20212;-87
2021/05/19 08:23:25;;;;;;;5.40;4.90;;;;;;;12.30;75.49;95619.09;4964774;28;20207;-87
2021/05/19 08:26:23;;;;;;;4.80;4.40;;;;;;;12.28;75.06;95613.31;4976373;28;20662;-87
2021/05/19 08:28:55;;;;;;;5.43;4.70;;;;;;;12.23;72.95;95615.63;4975671;28;20207;-87
2021/05/19 08:31:23;;;;;;;4.60;4.20;;;;;;;12.30;73.46;95613.91;4976196;28;20224;-87
2021/05/19 08:33:49;;;;;;;4.80;4.40;;;;;;;12.40;72.63;95616.16;4975205;28;20207;-86
2021/05/19 08:36:27;;;;;;;4.90;4.50;;;;;;;12.55;73.35;95622.03;4975704;28;20218;-87
2021/05/19 08:38:54;;;;;;;4.87;4.37;;;;;;;12.79;73.29;95615.66;4975427;28;20644;-87
2021/05/19 08:41:22;;;;;;;5.50;5.00;;;;;;;13.07;73.65;95611.25;4975712;28;20304;-88
2021/05/19 08:43:59;;;;;;;5.07;4.67;;;;;;;13.56;74.96;95618.06;4975354;28;20262;-87
2021/05/19 08:46:26;;;;;;;5.43;4.93;;;;;;;13.80;74.59;95601.22;4975576;28;20298;-86
2021/05/19 08:49:29;;;;;;;5.00;4.60;;;;;;;13.93;71.81;95611.59;4975641;28;20254;-87
2021/05/19 08:51:58;;;;;;;5.73;5.23;;;;;;;13.90;73.36;95596.44;4973542;28;20243;-86
2021/05/19 08:54:25;;;;;;;4.73;4.43;;;;;;;14.06;71.83;95608.22;4975366;28;20219;-85
2021/05/19 08:57:18;;;;;;;5.43;4.87;;;;;;;14.09;71.50;95608.63;4975872;28;20291;-87
2021/05/19 08:59:47;;;;;;;5.53;5.03;;;;;;;13.89;70.46;95597.44;4975595;28;20753;-86
2021/05/19 09:02:28;;;;;;;4.97;4.57;;;;;;;13.69;68.49;95597.38;4975976;28;20224;-87
2021/05/19 09:05:13;;;;;;;5.47;4.97;;;;;;;13.61;70.12;95610.53;4967734;28;20207;-88
2021/05/19 09:07:42;;;;;;;5.90;5.33;;;;;;;13.55;69.07;95602.72;4956503;29;20212;-88
2021/05/19 09:10:16;;;;;;;5.53;5.07;;;;;;;13.55;68.85;95598.34;4975267;28;20216;-87
2021/05/19 09:12:42;;;;;;;5.53;5.03;;;;;;;13.56;69.03;95604.31;4976321;28;20299;-86
2021/05/19 09:15:12;;;;;;;5.70;5.20;;;;;;;13.65;67.06;95606.56;4975886;28;20272;-86
2021/05/19 09:17:40;;;;;;;4.77;4.40;;;;;;;13.81;68.10;95597.63;4975853;28;20242;-84
2021/05/19 09:20:08;;;;;;;5.33;4.83;;;;;;;13.85;64.75;95600.63;4974754;28;20311;-86
2021/05/19 09:22:36;;;;;;;5.20;4.70;;;;;;;14.02;64.33;95599.28;4971084;28;20204;-85
2021/05/19 09:25:15;;;;;;;4.83;4.43;;;;;;;14.22;65.30;95597.50;4974712;28;20699;-85
2021/05/19 09:27:42;;;;;;;5.07;4.67;;;;;;;14.39;64.51;95593.50;4961930;28;20192;-86
2021/05/19 09:30:34;;;;;;;4.97;4.50;;;;;;;14.45;65.11;95599.69;4976721;28;20287;-87
2021/05/19 09:33:10;;;;;;;5.13;4.73;;;;;;;14.66;62.13;95588.31;4975780;28;20204;-86
2021/05/19 09:35:39;;;;;;;4.80;4.40;;;;;;;14.81;63.84;95600.09;4975109;28;20192;-86
2021/05/19 09:38:27;;;;;;;4.67;3.97;;;;;;;14.83;60.33;95595.47;4975304;28;20641;-86
2021/05/19 09:41:15;;;;;;;4.97;4.37;;;;;;;15.02;58.72;95598.22;4963849;28;20633;-86
2021/05/19 09:43:42;;;;;;;4.67;4.17;;;;;;;14.99;57.95;95609.03;4972793;28;20242;-87
2021/05/19 09:46:19;;;;;;;4.80;4.40;;;;;;;14.61;58.73;95596.72;4975803;28;20201;-86
2021/05/19 09:49:03;;;;;;;4.83;4.43;;;;;;;14.20;58.55;95609.84;4977049;28;20212;-86
2021/05/19 09:51:39;;;;;;;4.60;4.20;;;;;;;13.99;59.59;95599.66;4976592;28;20240;-87
2021/05/19 09:54:05;;;;;;;4.87;4.27;;;;;;;13.94;61.17;95612.38;4970084;28;20400;-85
2021/05/19 09:56:32;;;;;;;4.43;4.13;;;;;;;13.87;62.41;95609.78;4968046;28;20246;-86
2021/05/19 09:59:00;;;;;;;5.10;4.50;;;;;;;13.85;62.94;95606.59;4966139;28;20209;-85
2021/05/19 10:01:34;;;;;;;4.90;4.50;;;;;;;13.88;64.02;95608.78;4967887;28;20231;-85
2021/05/19 10:04:03;;;;;;;6.63;5.00;;;;;;;13.80;63.29;95612.38;4975987;28;20216;-86
2021/05/19 10:06:33;;;;;;;5.17;4.70;;;;;;;13.79;63.43;95612.56;4974862;28;20206;-86
2021/05/19 10:08:59;;;;;;;5.37;4.87;;;;;;;13.71;63.70;95608.34;4976142;28;20259;-86
2021/05/19 10:11:28;;;;;;;6.00;4.47;;;;;;;13.65;63.50;95609.16;4976243;28;20224;-85
2021/05/19 10:13:54;;;;;;;4.17;3.87;;;;;;;13.50;62.63;95618.81;4975752;28;20283;-86
2021/05/19 10:16:22;;;;;;;3.93;3.63;;;;;;;13.41;62.91;95625.16;4975862;28;20679;-86
2021/05/19 10:18:51;;;;;;;4.30;4.00;;;;;;;13.33;63.32;95625.31;4974792;28;20278;-86
2021/05/19 10:21:19;;;;;;;4.20;3.90;;;;;;;13.12;64.70;95628.75;4975972;28;20434;-86
2021/05/19 10:24:01;;;;;;;4.80;4.40;;;;;;;12.96;68.52;95635.03;4974610;28;20203;-86
2021/05/19 10:26:27;;;;;;;5.97;4.80;;;;;;;12.74;70.48;95652.38;4974358;28;20206;-86
2021/05/19 10:28:59;;;;;;;5.97;5.40;;;;;;;12.50;69.99;95632.16;4975143;28;20240;-86
2021/05/19 10:31:30;;;;;;;5.67;5.17;;;;;;;12.35;72.34;95629.63;4973791;28;20227;-85
2021/05/19 10:33:58;;;;;;;5.07;4.63;;;;;;;12.26;75.31;95645.44;4975700;28;20283;-86
2021/05/19 10:36:42;;;;;;;6.13;5.53;;;;;;;12.19;76.97;95644.56;4974649;28;20206;-85
2021/05/19 10:39:22;;;;;;;9.97;8.50;;;;;;;12.14;78.99;95642.53;4975291;28;20196;-86
2021/05/19 10:41:49;;;;;;;8.70;7.47;;;;;;;12.25;77.12;95630.94;4954409;28;20287;-85
2021/05/19 10:44:16;;;;;;;6.83;5.03;;;;;;;12.34;76.18;95630.63;4972425;28;20230;-85
2021/05/19 10:46:52;;;;;;;4.50;4.03;;;;;;;12.45;73.36;95629.31;4971696;28;20567;-86
2021/05/19 10:49:20;;;;;;;5.00;3.87;;;;;;;12.55;72.33;95624.63;4975083;28;20340;-87
2021/05/19 10:52:11;;;;;;;3.97;3.67;;;;;;;12.67;72.24;95619.75;4975058;28;20587;-88
2021/05/19 10:58:31;;;;;;;3.30;3.00;;;;;;;12.99;69.88;95624.31;4922984;29;20644;-88
2021/05/19 11:00:58;;;;;;;3.60;3.27;;;;;;;13.15;69.93;95610.31;4934229;29;20225;-87
2021/05/19 11:04:24;;;;;;;2.90;2.70;;;;;;;13.36;68.91;95612.81;4959608;28;20572;-88
2021/05/19 11:07:47;;;;;;;2.90;2.70;;;;;;;13.39;67.50;95614.22;4975279;28;20231;-88
2021/05/19 11:14:41;;;;;;;3.67;3.07;;;;;;;14.00;66.08;95609.81;4923889;29;20220;-88
2021/05/19 11:17:16;;;;;;;3.37;3.00;;;;;;;14.23;65.67;95606.06;4975269;28;20204;-87
2021/05/19 11:19:43;;;;;;;3.43;3.13;;;;;;;14.03;62.61;95606.84;4976967;28;20286;-88
2021/05/19 11:26:00;;;;;;;;;;;;;;;;;;;;;
2021/05/19 11:28:36;;;;;;;3.97;3.67;;;;;;;14.10;63.61;95594.69;4930751;28;20199;-87
2021/05/19 11:31:39;;;;;;;4.10;3.80;;;;;;;14.09;62.78;95594.88;4983663;28;20219;-88
2021/05/19 11:34:27;;;;;;;4.10;3.70;;;;;;;14.03;64.05;95593.09;4944226;28;20223;-88
2021/05/19 11:37:17;;;;;;;;;;;;;;;;;;;;;
2021/05/19 11:39:56;;;;;;;3.73;3.40;;;;;;;14.11;61.94;95574.75;4966306;28;20409;-88
2021/05/19 11:42:39;;;;;;;3.53;3.23;;;;;;;14.29;61.96;95577.56;4963933;29;20367;-86
2021/05/19 11:45:09;;;;;;;3.17;2.80;;;;;;;14.11;61.26;95570.38;4966469;28;20284;-88
2021/05/19 11:47:39;;;;;;;3.10;2.90;;;;;;;14.10;63.82;95568.78;4952974;28;20728;-87
2021/05/19 11:50:22;;;;;;;3.87;3.57;;;;;;;14.21;64.81;95575.19;4954381;29;20225;-88
2021/05/19 11:53:00;;;;;;;3.47;3.27;;;;;;;14.36;64.70;95573.19;4968514;28;20259;-87
2021/05/19 11:58:27;;;;;;;4.30;3.90;;;;;;;14.90;62.28;95568.75;4952339;28;20541;-88
2021/05/19 12:01:10;;;;;;;3.40;3.20;;;;;;;14.88;58.54;95574.13;4953178;29;20279;-86
2021/05/19 12:03:43;;;;;;;4.63;3.20;;;;;;;14.92;58.98;95574.53;4953856;29;20204;-85
2021/05/19 12:06:21;;;;;;;4.37;3.33;;;;;;;15.00;61.05;95572.53;4953382;28;20208;-87
2021/05/19 12:08:48;;;;;;;3.10;2.80;;;;;;;15.18;61.12;95567.47;4953838;28;20264;-87
2021/05/19 12:11:28;;;;;;;3.40;2.90;;;;;;;15.68;59.32;95559.88;4952994;28;20240;-87
2021/05/19 12:14:00;;;;;;;2.90;2.70;;;;;;;15.88;58.08;95567.53;4954486;28;20200;-87
2021/05/19 12:16:32;;;;;;;3.57;3.27;;;;;;;15.95;56.44;95563.13;4954503;29;20760;-86
2021/05/19 12:19:07;;;;;;;3.70;3.40;;;;;;;15.51;52.69;95569.91;4943342;29;20204;-87
2021/05/19 12:21:34;;;;;;;3.63;3.33;;;;;;;15.35;53.85;95564.41;4953592;29;20235;-86
2021/05/19 12:24:04;;;;;;;3.10;2.90;;;;;;;15.13;55.59;95571.69;4953275;29;20720;-87
2021/05/19 12:26:36;;;;;;;2.90;2.70;;;;;;;15.01;56.15;95583.69;4953381;29;20347;-87
2021/05/19 12:29:03;;;;;;;3.03;2.50;;;;;;;14.93;57.10;95576.91;4953982;28;20211;-86
2021/05/19 12:31:32;;;;;;;2.60;2.40;;;;;;;14.77;57.30;95580.75;4954413;29;20839;-86
2021/05/19 12:33:59;;;;;;;3.03;2.20;;;;;;;14.54;57.99;95588.16;4955426;29;20213;-87
2021/05/19 12:36:28;;;;;;;3.10;2.80;;;;;;;14.00;57.81;95583.94;4953395;29;20851;-87
2021/05/19 12:38:58;;;;;;;3.60;2.93;;;;;;;13.96;59.65;95590.50;4955378;29;20197;-87
2021/05/19 12:41:44;;;;;;;3.00;2.80;;;;;;;13.73;61.05;95606.38;4953766;29;20229;-87
2021/05/19 12:44:12;;;;;;;2.57;2.37;;;;;;;13.77;61.49;95605.00;4955009;29;20308;-86
2021/05/19 12:46:39;;;;;;;2.93;2.73;;;;;;;13.87;62.80;95603.78;4952890;29;20205;-87
2021/05/19 12:49:12;;;;;;;2.93;2.73;;;;;;;13.79;63.99;95612.56;4953141;29;20298;-87
2021/05/19 12:51:54;;;;;;;3.40;3.10;;;;;;;13.67;65.91;95617.47;4957266;28;20738;-87
2021/05/19 12:54:31;;;;;;;;;;;;;;;;;;;;;
2021/05/19 12:57:13;;;;;;;3.20;3.00;;;;;;;13.71;64.93;95618.69;4958327;28;20200;-87
2021/05/19 13:05:31;;;;;;;1.90;1.80;;;;;;;14.06;59.51;95621.16;4910370;29;20206;-85
2021/05/19 13:08:22;;;;;;;2.20;2.00;;;;;;;14.16;59.08;95619.00;4949519;29;20217;-86
2021/05/19 13:10:52;;;;;;;2.40;2.20;;;;;;;14.22;59.81;95622.59;4956014;29;20714;-86
2021/05/19 13:13:35;;;;;;;2.40;2.20;;;;;;;14.27;61.12;95625.38;4958015;29;20235;-85
2021/05/19 13:16:14;;;;;;;2.70;2.50;;;;;;;14.06;59.61;95621.94;4958101;28;20212;-86
2021/05/19 13:19:23;;;;;;;2.50;2.30;;;;;;;13.98;60.48;95624.75;4957999;28;20205;-87
2021/05/19 13:21:56;;;;;;;2.30;2.10;;;;;;;13.99;57.91;95631.53;4908872;29;20240;-87
2021/05/19 13:30:50;;;;;;;2.17;2.00;;;;;;;14.50;58.67;95638.75;4911221;29;20238;-85
2021/05/19 13:33:33;;;;;;;2.07;1.93;;;;;;;14.54;57.87;95654.72;4897496;29;20262;-86
2021/05/19 13:36:48;;;;;;;2.30;2.10;;;;;;;14.31;58.29;95644.69;4896763;29;20215;-86
2021/05/19 13:39:21;;;;;;;2.20;1.73;;;;;;;13.93;58.40;95640.06;4902938;29;20210;-86
2021/05/19 13:47:37;;;;;;;2.70;1.40;;;;;;;14.45;57.54;95634.16;4947294;28;20205;-86
2021/05/19 13:50:24;;;;;;;1.67;1.57;;;;;;;14.50;56.68;95634.38;4958561;29;20264;-87
2021/05/19 13:52:50;;;;;;;1.50;1.40;;;;;;;14.47;55.33;95624.41;4957204;28;20213;-86
2021/05/19 13:55:20;;;;;;;3.30;1.60;;;;;;;14.48;55.16;95636.38;4955956;29;20246;-86